Ladyhawk — WCY6804 — position and weather

sailwx.info

Track history (hours):
 
Tides and Currents Weather Stations Pressure Air Temp Water Temp Dewpoint Dewpoint Depression Visibility Wind Speed Wind Dir Waves Ship Positions

Ladyhawk

Owner: GRIGG, STEVEN A, WASHINGTON, DC. More information available from US FCC via Universal Licensing System and Coast Guard Vessel Documentation Center.

Last reported at 2018-Jul-15 16:12 UTC. Time now 2018-Jul-19 09:35 UTC.
Position N 38°58' W 076°29'.

Length 16 m.

Type: Sailing vessel. MMSI: 338013912.

Date/timePositionNaut miles runAvg speedWind from/ knotsBaromVisibWave heightAir tempDewpointWater temp
2018-Jul-15 16:12N 38°58' W 076°29'0 1.7
2018-Jul-15 16:00N 38°58' W 076°29'3 6.3
2018-Jul-15 15:30N 38°59' W 076°25'2 0.1
2018-Jul-14 18:22N 38°60' W 076°23'2 6.2
2018-Jul-14 18:00N 38°58' W 076°25'2 4.8
2018-Jul-14 17:30N 38°56' W 076°24'0 0.7
2018-Jul-14 16:59N 38°56' W 076°25'3 6.3
2018-Jul-14 16:30N 38°58' W 076°28'1 0.3
2018-Jul-14 12:25N 38°58' W 076°29'0 0.0
2018-Jul-14 11:55N 38°58' W 076°29'0 0.0
2018-Jul-14 11:13N 38°58' W 076°29'0 0.0
2018-Jul-14 10:55N 38°58' W 076°29'0 0.0
2018-Jul-14 10:22N 38°58' W 076°29'0 0.0
2018-Jul-14 09:43N 38°58' W 076°29'0 0.0
2018-Jul-14 08:44N 38°58' W 076°29'0 0.0
2018-Jul-14 08:25N 38°58' W 076°29'0 0.0
2018-Jul-14 07:49N 38°58' W 076°29'0 0.0
2018-Jul-14 03:25N 38°58' W 076°29'0 0.0
2018-Jul-14 02:49N 38°58' W 076°29'0 0.0
2018-Jul-14 01:19N 38°58' W 076°29'0 0.0
2018-Jul-14 00:49N 38°58' W 076°29'0 0.0
2018-Jul-14 00:28N 38°58' W 076°29'0 0.0
2018-Jul-13 23:49N 38°58' W 076°29'0 0.0
2018-Jul-13 23:25N 38°58' W 076°29'0 0.0
2018-Jul-13 22:52N 38°58' W 076°29'0 0.0
2018-Jul-13 20:40N 38°58' W 076°29'0 0.0
2018-Jul-13 20:10N 38°58' W 076°29'  
2018-Jul-08 15:56N 38°58' W 076°29'0 0.0
2018-Jul-08 15:17N 38°58' W 076°29'0 0.0
2018-Jul-08 14:53N 38°58' W 076°29'  
Track history (hours):
 
Tides and Currents Weather Stations Pressure Air Temp Water Temp Dewpoint Dewpoint Depression Visibility Wind Speed Wind Dir Waves Ship Positions

Ladyhawk

Owner: GRIGG, STEVEN A, WASHINGTON, DC. More information available from US FCC via Universal Licensing System and Coast Guard Vessel Documentation Center.

Last reported at 2018-Jul-15 16:12 UTC. Time now 2018-Jul-19 09:35 UTC.
Position N 38°58' W 076°29'.

Length 16 m.

Type: Sailing vessel. MMSI: 338013912.

Date/timePositionNaut miles runAvg speedWind from/ knotsBaromVisibWave heightAir tempDewpointWater temp
2018-Jul-15 16:12N 38°58' W 076°29'0 1.7
2018-Jul-15 16:00N 38°58' W 076°29'3 6.3
2018-Jul-15 15:30N 38°59' W 076°25'2 0.1
2018-Jul-14 18:22N 38°60' W 076°23'2 6.2
2018-Jul-14 18:00N 38°58' W 076°25'2 4.8
2018-Jul-14 17:30N 38°56' W 076°24'0 0.7
2018-Jul-14 16:59N 38°56' W 076°25'3 6.3
2018-Jul-14 16:30N 38°58' W 076°28'1 0.3
2018-Jul-14 12:25N 38°58' W 076°29'0 0.0
2018-Jul-14 11:55N 38°58' W 076°29'0 0.0
2018-Jul-14 11:13N 38°58' W 076°29'0 0.0
2018-Jul-14 10:55N 38°58' W 076°29'0 0.0
2018-Jul-14 10:22N 38°58' W 076°29'0 0.0
2018-Jul-14 09:43N 38°58' W 076°29'0 0.0
2018-Jul-14 08:44N 38°58' W 076°29'0 0.0
2018-Jul-14 08:25N 38°58' W 076°29'0 0.0
2018-Jul-14 07:49N 38°58' W 076°29'0 0.0
2018-Jul-14 03:25N 38°58' W 076°29'0 0.0
2018-Jul-14 02:49N 38°58' W 076°29'0 0.0
2018-Jul-14 01:19N 38°58' W 076°29'0 0.0
2018-Jul-14 00:49N 38°58' W 076°29'0 0.0
2018-Jul-14 00:28N 38°58' W 076°29'0 0.0
2018-Jul-13 23:49N 38°58' W 076°29'0 0.0
2018-Jul-13 23:25N 38°58' W 076°29'0 0.0
2018-Jul-13 22:52N 38°58' W 076°29'0 0.0
2018-Jul-13 20:40N 38°58' W 076°29'0 0.0
2018-Jul-13 20:10N 38°58' W 076°29'  
2018-Jul-08 15:56N 38°58' W 076°29'0 0.0
2018-Jul-08 15:17N 38°58' W 076°29'0 0.0
2018-Jul-08 14:53N 38°58' W 076°29'  

Dump ship's entire track history